Home   Weather   Realmonte   Past weeks
Flag for Italy

Past Weather in Realmonte, Italy — Yesterday and Last 2 Weeks

Currently: 81 °F. Sunny. (Weather station: Palermo / Punta Raisi, Italy). See more current weather

Past Weather in Realmonte — Graph

°F

Realmonte Temperature Yesterday

Maximum temperature yesterday: 88 °F (at 12:20 pm)
Minimum temperature yesterday: 77 °F (at 1:20 am)
Average temperature yesterday: 82 °F

High & Low Weather Summary for the Past Weeks

 TemperatureHumidityPressure
High100 °F (Jun 27, 6:20 pm)94% (Jun 25, 12:50 am)30.07 "Hg (Jun 25, 12:50 am)
Low68 °F (Jun 16, 6:20 am)13% (Jun 28, 8:20 am)29.83 "Hg (Jun 30, 3:20 am)
Average80 °F67%29.96 "Hg
* Reported Jun 16 6:20 am — Jul 1 6:20 am, Realmonte. Weather by CustomWeather, © 2022

Note: Actual official high and low records may vary slightly from our data, if they occured in-between our weather recording intervals... More about our weather records

Realmonte Weather History for the Previous 24 Hours

Scroll right to see more
 ConditionsComfort  
Time TempWeatherWind HumidityBarometerVisibility
6:20 am
Fri, Jul 1
79 °FSunny.5 mph74%29.92 "Hg10 mi
5:50 am79 °FSunny.9 mph74%29.92 "Hg10 mi
5:20 am79 °FPassing clouds.3 mph79%29.92 "HgN/A
4:50 am77 °FClear.10 mph83%29.92 "Hg10 mi
3:50 am77 °FClear.2 mph79%29.89 "Hg10 mi
3:20 am77 °FPassing clouds.5 mph89%29.89 "HgN/A
1:20 am79 °FClear.6 mph84%29.89 "Hg10 mi
12:50 am79 °FClear.9 mph84%29.92 "Hg10 mi
12:20 am79 °FClear.8 mph84%29.92 "Hg10 mi
11:50 pm
Thu, Jun 30
79 °FClear.3 mph84%29.92 "Hg10 mi
11:20 pm79 °FClear.5 mph84%29.92 "Hg10 mi
10:50 pm79 °FClear.2 mph89%29.92 "Hg10 mi
10:20 pm79 °FClear.2 mph89%29.92 "Hg10 mi
9:50 pm79 °FPassing clouds.6 mph89%29.89 "HgN/A
9:20 pm81 °FClear.8 mph79%29.86 "Hg10 mi
8:50 pm81 °FClear.9 mph79%29.86 "Hg10 mi
8:20 pm81 °FSunny.7 mph84%29.86 "Hg10 mi
7:50 pm81 °FSunny.8 mph84%29.86 "Hg10 mi
7:20 pm81 °FSunny.5 mph84%29.86 "Hg10 mi
6:50 pm82 °FSunny.7 mph74%29.86 "Hg10 mi
6:20 pm86 °FSunny.5 mph66%29.86 "Hg10 mi
5:50 pm86 °FPassing clouds.12 mph66%29.86 "HgN/A
5:20 pm86 °FSunny.15 mph66%29.86 "Hg10 mi
4:50 pm86 °FSunny.18 mph66%29.86 "Hg10 mi
4:20 pm86 °FSunny.20 mph66%29.86 "Hg10 mi
3:50 pm84 °FSunny.21 mph70%29.86 "Hg10 mi
3:20 pm86 °FSunny.17 mph66%29.86 "Hg10 mi
2:20 pm86 °FSunny.17 mph66%29.86 "Hg10 mi
1:50 pm88 °FSunny.15 mph62%29.86 "Hg10 mi
1:20 pm88 °FSunny.18 mph59%29.83 "Hg10 mi
12:50 pm88 °FSunny.21 mph59%29.83 "Hg10 mi
12:20 pm88 °FSunny.18 mph59%29.83 "Hg10 mi
11:50 am86 °FSunny.17 mph62%29.86 "Hg10 mi
11:20 am86 °FSunny.17 mph59%29.86 "Hg10 mi
10:50 am86 °FSunny.15 mph59%29.86 "Hg10 mi
10:20 am84 °FSunny.16 mph62%29.86 "Hg10 mi
9:50 am81 °FSunny.7 mph74%29.89 "Hg10 mi
9:20 am82 °FSunny.10 mph66%29.89 "Hg10 mi
8:50 am81 °FPassing clouds.13 mph70%29.89 "HgN/A
8:20 am79 °FSunny.17 mph84%29.89 "Hg10 mi
Weather by CustomWeather, © 2022

See weather overview